createdAt,value
2023-04-26T00:00:31.839Z,99042.92
2023-04-26T00:05:40.482Z,99034.31
2023-04-26T00:10:49.060Z,99038.78
2023-04-26T00:15:57.549Z,99033.76
2023-04-26T00:21:05.873Z,99030.30
2023-04-26T00:26:14.469Z,99028.44
2023-04-26T00:31:23.606Z,99036.14
2023-04-26T00:36:32.796Z,99040.34
2023-04-26T00:41:41.350Z,99039.08
2023-04-26T00:46:49.970Z,99037.08
2023-04-26T00:51:59.063Z,99036.27
2023-04-26T00:57:07.637Z,99037.20
2023-04-26T01:02:18.061Z,99042.64
2023-04-26T01:07:26.420Z,99044.94
2023-04-26T01:12:35.307Z,99053.66
2023-04-26T01:17:44.850Z,99059.79
2023-04-26T01:22:54.315Z,99062.61
2023-04-26T01:28:01.909Z,99052.88
2023-04-26T01:33:09.407Z,99046.98
2023-04-26T01:38:18.324Z,99037.28
2023-04-26T01:43:26.792Z,99038.21
2023-04-26T01:48:35.307Z,99034.05
2023-04-26T01:53:43.589Z,99034.55
2023-04-26T01:58:52.065Z,99031.23
2023-04-26T02:04:00.841Z,99024.96
2023-04-26T02:09:09.982Z,99023.05
2023-04-26T02:14:21.663Z,99019.76
2023-04-26T02:19:31.370Z,99016.66
2023-04-26T02:24:42.800Z,99013.02
2023-04-26T02:29:51.074Z,99018.70
2023-04-26T02:34:59.883Z,99018.61
2023-04-26T02:40:11.349Z,99014.92
2023-04-26T02:45:20.290Z,99014.26
2023-04-26T02:50:29.152Z,99013.86
2023-04-26T02:55:38.933Z,99013.09
2023-04-26T03:00:51.418Z,99009.36
2023-04-26T03:06:00.416Z,99008.45
2023-04-26T03:11:09.190Z,99006.29
2023-04-26T03:16:18.194Z,99006.29
2023-04-26T03:21:28.295Z,99004.54
2023-04-26T03:26:36.368Z,99010.89
2023-04-26T03:31:44.835Z,99017.06
2023-04-26T03:36:53.461Z,99018.50
2023-04-26T03:42:01.856Z,99021.17
2023-04-26T03:47:10.226Z,99021.34
2023-04-26T03:52:18.308Z,99023.63
2023-04-26T03:57:26.950Z,99022.21
2023-04-26T04:02:35.048Z,99020.91
2023-04-26T04:07:43.626Z,99024.86
2023-04-26T04:12:52.532Z,99025.08
2023-04-26T04:18:00.952Z,99027.15
2023-04-26T04:23:09.220Z,99029.54
2023-04-26T04:28:18.531Z,99022.86
2023-04-26T04:33:29.255Z,99027.13
2023-04-26T04:38:38.826Z,99027.85
2023-04-26T04:43:48.156Z,99030.99
2023-04-26T04:48:55.872Z,99032.27
2023-04-26T04:54:14.826Z,99028.33
2023-04-26T04:59:22.393Z,99029.71
2023-04-26T05:04:30.098Z,99030.86
2023-04-26T05:09:39.086Z,99030.90
2023-04-26T05:14:47.392Z,99035.96
2023-04-26T05:19:55.685Z,99038.16
2023-04-26T05:25:04.646Z,99043.61
2023-04-26T05:30:14.476Z,99044.42
2023-04-26T05:35:27.589Z,99046.95
2023-04-26T05:40:36.057Z,99051.02
2023-04-26T05:45:54.975Z,99048.25
2023-04-26T05:51:03.339Z,99055.95
2023-04-26T05:56:11.437Z,99058.70
2023-04-26T06:01:21.390Z,99059.30
2023-04-26T06:06:29.652Z,99063.00
2023-04-26T06:11:37.936Z,99061.06
2023-04-26T06:16:45.959Z,99054.15
2023-04-26T06:21:55.804Z,99058.27
2023-04-26T06:27:04.688Z,99059.20
2023-04-26T06:32:13.210Z,99064.36
2023-04-26T06:37:21.866Z,99066.11
2023-04-26T06:42:30.502Z,99068.83
2023-04-26T06:48:03.448Z,99064.52
2023-04-26T06:53:12.852Z,99062.91
2023-04-26T06:58:21.676Z,99063.94
2023-04-26T07:03:30.129Z,99063.86
2023-04-26T07:08:39.172Z,99069.70
2023-04-26T07:13:48.048Z,99076.44
2023-04-26T07:18:58.794Z,99079.91
2023-04-26T07:24:07.168Z,99078.54
2023-04-26T07:29:15.472Z,99082.52
2023-04-26T07:34:24.194Z,99086.54
2023-04-26T07:39:31.834Z,99089.84
2023-04-26T07:44:43.555Z,99091.14
2023-04-26T07:49:54.791Z,99091.31
2023-04-26T07:55:03.671Z,99093.29
2023-04-26T08:00:14.325Z,99096.55
2023-04-26T08:05:22.928Z,99104.73
2023-04-26T08:10:31.755Z,99106.42
2023-04-26T08:15:41.016Z,99109.02
2023-04-26T08:20:49.167Z,99105.87
2023-04-26T08:25:56.725Z,99110.52
2023-04-26T08:31:05.854Z,99114.75
2023-04-26T08:36:14.561Z,99118.95
2023-04-26T08:41:26.623Z,99118.61
2023-04-26T08:46:39.071Z,99120.59
2023-04-26T08:51:48.531Z,99122.44
2023-04-26T08:56:57.432Z,99123.39
2023-04-26T09:02:06.674Z,99127.68
2023-04-26T09:07:21.754Z,99132.16
2023-04-26T09:12:29.341Z,99135.39
2023-04-26T09:17:38.637Z,99139.13
2023-04-26T09:22:46.771Z,99146.34
2023-04-26T09:27:55.109Z,99150.80
2023-04-26T09:33:06.535Z,99155.77
2023-04-26T09:38:15.705Z,99160.59
2023-04-26T09:43:24.156Z,99163.80
2023-04-26T09:48:34.790Z,99161.98
2023-04-26T09:53:50.518Z,99161.32
2023-04-26T09:59:04.606Z,99164.59
2023-04-26T10:04:12.696Z,99159.68
2023-04-26T10:09:20.277Z,99162.75
2023-04-26T10:14:28.458Z,99164.50
2023-04-26T10:19:37.700Z,99175.92
2023-04-26T10:24:47.551Z,99179.89
2023-04-26T10:30:15.022Z,99181.43
2023-04-26T10:35:23.861Z,99183.30
2023-04-26T10:40:33.278Z,99185.99
2023-04-26T10:45:41.700Z,99197.54
2023-04-26T10:51:13.057Z,99199.69
2023-04-26T10:56:55.916Z,99201.16
2023-04-26T11:02:04.389Z,99200.13
2023-04-26T11:07:12.018Z,99199.77
2023-04-26T11:12:20.257Z,99195.70
2023-04-26T11:17:28.374Z,99198.87
2023-04-26T11:22:42.399Z,99200.61
2023-04-26T11:27:50.589Z,99207.52
2023-04-26T11:32:58.480Z,99214.05
2023-04-26T11:38:08.464Z,99219.52
2023-04-26T11:43:17.601Z,99225.91
2023-04-26T11:48:26.896Z,99225.39
2023-04-26T11:53:42.309Z,99226.92
2023-04-26T11:58:51.486Z,99231.77
2023-04-26T12:04:01.235Z,99235.58
2023-04-26T12:09:11.687Z,99237.77
2023-04-26T12:14:21.436Z,99242.33
2023-04-26T12:19:29.522Z,99243.66
2023-04-26T12:24:38.961Z,99252.38
2023-04-26T12:29:46.976Z,99258.33
2023-04-26T12:34:55.484Z,99262.86
2023-04-26T12:40:04.020Z,99268.98
2023-04-26T12:45:13.544Z,99266.60
2023-04-26T12:50:22.270Z,99270.77
2023-04-26T12:55:32.607Z,99279.52
2023-04-26T13:00:41.289Z,99286.98
2023-04-26T13:05:51.205Z,99290.10
2023-04-26T13:10:59.595Z,99292.23
2023-04-26T13:16:09.506Z,99296.00
2023-04-26T13:21:18.978Z,99297.82
2023-04-26T13:26:28.075Z,99300.32
2023-04-26T13:31:37.214Z,99302.09
2023-04-26T13:36:45.689Z,99306.80
2023-04-26T13:41:54.373Z,99308.84
2023-04-26T13:47:02.760Z,99313.09
2023-04-26T13:52:10.444Z,99320.62
2023-04-26T13:57:19.947Z,99321.76
2023-04-26T14:02:27.831Z,99323.71
2023-04-26T14:07:36.334Z,99334.23
2023-04-26T14:12:47.672Z,99345.30
2023-04-26T14:17:55.240Z,99353.57
2023-04-26T14:23:03.377Z,99362.98
2023-04-26T14:28:11.969Z,99371.31
2023-04-26T14:33:19.602Z,99380.02
2023-04-26T14:38:27.206Z,99386.98
2023-04-26T14:43:35.890Z,99397.26
2023-04-26T14:48:45.414Z,99402.60
2023-04-26T14:53:54.120Z,99403.73
2023-04-26T14:59:03.847Z,99404.10
2023-04-26T15:04:12.286Z,99403.91
2023-04-26T15:09:21.228Z,99406.20
2023-04-26T15:14:29.495Z,99412.29
2023-04-26T15:19:38.101Z,99415.45
2023-04-26T15:24:45.672Z,99418.25
2023-04-26T15:29:55.756Z,99418.20
2023-04-26T15:35:05.824Z,99420.58
2023-04-26T15:40:16.693Z,99418.07
2023-04-26T15:45:24.959Z,99416.77
2023-04-26T15:50:33.255Z,99419.48
2023-04-26T15:55:41.950Z,99416.42
2023-04-26T16:00:50.233Z,99420.35
2023-04-26T16:05:58.976Z,99418.12
2023-04-26T16:11:07.919Z,99422.19
2023-04-26T16:16:16.397Z,99431.18
2023-04-26T16:21:27.185Z,99429.90
2023-04-26T16:26:36.297Z,99435.11
2023-04-26T16:31:45.180Z,99442.77
2023-04-26T16:36:53.528Z,99452.20
2023-04-26T16:42:02.687Z,99433.52
2023-04-26T16:47:10.202Z,99437.88
2023-04-26T16:52:17.562Z,99433.52
2023-04-26T16:57:25.793Z,99456.20
2023-04-26T17:02:34.920Z,99456.63
2023-04-26T17:07:43.287Z,99461.02
2023-04-26T17:12:51.816Z,99463.98
2023-04-26T17:17:59.340Z,99464.34
2023-04-26T17:23:09.001Z,99465.19
2023-04-26T17:28:17.525Z,99468.35
2023-04-26T17:33:26.679Z,99472.44
2023-04-26T17:38:34.250Z,99476.59
2023-04-26T17:43:42.742Z,99481.93
2023-04-26T17:48:51.547Z,99485.14
2023-04-26T17:53:59.841Z,99491.27
2023-04-26T17:59:08.308Z,99494.37
2023-04-26T18:04:16.897Z,99498.33
2023-04-26T18:09:26.220Z,99511.28
2023-04-26T18:14:33.845Z,99520.06
2023-04-26T18:19:41.754Z,99525.55
2023-04-26T18:24:49.237Z,99523.54
2023-04-26T18:29:56.701Z,99535.36
2023-04-26T18:35:06.728Z,99534.61
2023-04-26T18:40:16.017Z,99543.65
2023-04-26T18:45:24.957Z,99547.59
2023-04-26T18:50:33.901Z,99559.20
2023-04-26T18:55:42.371Z,99562.77
2023-04-26T19:00:51.405Z,99578.56
2023-04-26T19:06:01.368Z,99581.56
2023-04-26T19:11:09.831Z,99575.64
2023-04-26T19:16:18.205Z,99581.38
2023-04-26T19:21:26.269Z,99584.14
2023-04-26T19:26:34.856Z,99588.29
2023-04-26T19:31:43.580Z,99588.77
2023-04-26T19:36:51.325Z,99590.83
2023-04-26T19:42:01.734Z,99589.70
2023-04-26T19:47:10.495Z,99592.75
2023-04-26T19:52:19.772Z,99591.64
2023-04-26T19:57:28.315Z,99591.88
2023-04-26T20:02:36.018Z,99595.23
2023-04-26T20:07:44.526Z,99602.25
2023-04-26T20:12:52.214Z,99606.27
2023-04-26T20:17:59.578Z,99600.86
2023-04-26T20:23:07.897Z,99603.27
2023-04-26T20:28:15.205Z,99608.48
2023-04-26T20:33:23.733Z,99614.58
2023-04-26T20:38:32.455Z,99615.27
2023-04-26T20:43:40.800Z,99617.68
2023-04-26T20:48:49.490Z,99614.88
2023-04-26T20:53:57.692Z,99614.33
2023-04-26T20:59:07.806Z,99615.70
2023-04-26T21:04:16.085Z,99619.16
2023-04-26T21:09:24.561Z,99620.18
2023-04-26T21:14:32.995Z,99624.17
2023-04-26T21:19:41.288Z,99625.36
2023-04-26T21:24:52.596Z,99627.58
2023-04-26T21:30:00.957Z,99625.81
2023-04-26T21:35:11.407Z,99630.63
2023-04-26T21:40:20.159Z,99632.83
2023-04-26T21:45:28.437Z,99635.39
2023-04-26T21:50:36.979Z,99639.50
2023-04-26T21:55:54.250Z,99647.95
2023-04-26T22:01:11.104Z,99648.02
2023-04-26T22:06:19.616Z,99654.36
2023-04-26T22:11:28.520Z,99658.27
2023-04-26T22:16:37.157Z,99659.91
2023-04-26T22:21:45.736Z,99662.73
2023-04-26T22:26:53.313Z,99662.27
2023-04-26T22:32:01.927Z,99664.95
2023-04-26T22:37:20.323Z,99665.17
2023-04-26T22:42:30.583Z,99671.65
2023-04-26T22:47:38.882Z,99673.63
2023-04-26T22:52:46.599Z,99672.60
2023-04-26T22:57:54.866Z,99678.16
2023-04-26T23:03:03.489Z,99682.66
2023-04-26T23:08:11.968Z,99684.22
2023-04-26T23:13:20.687Z,99691.50
2023-04-26T23:18:29.323Z,99695.13
2023-04-26T23:23:38.077Z,99697.71
2023-04-26T23:28:46.231Z,99692.83
2023-04-26T23:33:54.651Z,99694.04
2023-04-26T23:39:02.963Z,99694.02
2023-04-26T23:44:11.914Z,99695.44
2023-04-26T23:49:20.821Z,99696.30
2023-04-26T23:54:29.535Z,99697.86
2023-04-26T23:59:36.956Z,99701.70
